sensor_id;sensor_type;location;lat;lon;timestamp;P1;durP1;ratioP1;P2;durP2;ratioP2
15895;SDS011;33591;52.282;8.036;2022-08-01T00:00:09;13.95;;;11.82;;
15895;SDS011;33591;52.282;8.036;2022-08-01T00:01:11;13.98;;;11.40;;
15895;SDS011;33591;52.282;8.036;2022-08-01T00:02:11;15.48;;;11.93;;
15895;SDS011;33591;52.282;8.036;2022-08-01T00:03:12;16.70;;;11.82;;
15895;SDS011;33591;52.282;8.036;2022-08-01T00:04:12;13.27;;;11.50;;
15895;SDS011;33591;52.282;8.036;2022-08-01T00:05:12;14.65;;;10.75;;
15895;SDS011;33591;52.282;8.036;2022-08-01T00:06:13;14.35;;;11.75;;
15895;SDS011;33591;52.282;8.036;2022-08-01T00:07:13;14.38;;;11.02;;
15895;SDS011;33591;52.282;8.036;2022-08-01T00:08:13;13.85;;;11.85;;
15895;SDS011;33591;52.282;8.036;2022-08-01T00:09:14;14.45;;;11.80;;
15895;SDS011;33591;52.282;8.036;2022-08-01T00:10:15;16.27;;;11.20;;
15895;SDS011;33591;52.282;8.036;2022-08-01T00:11:16;13.82;;;11.35;;
15895;SDS011;33591;52.282;8.036;2022-08-01T00:12:16;14.05;;;9.88;;
15895;SDS011;33591;52.282;8.036;2022-08-01T00:13:16;12.52;;;9.82;;
15895;SDS011;33591;52.282;8.036;2022-08-01T00:14:16;12.02;;;10.60;;
15895;SDS011;33591;52.282;8.036;2022-08-01T00:15:17;16.50;;;10.32;;
15895;SDS011;33591;52.282;8.036;2022-08-01T00:16:17;12.18;;;10.02;;
15895;SDS011;33591;52.282;8.036;2022-08-01T00:17:17;11.05;;;9.75;;
15895;SDS011;33591;52.282;8.036;2022-08-01T00:18:18;11.57;;;10.23;;
15895;SDS011;33591;52.282;8.036;2022-08-01T00:19:18;14.40;;;10.20;;
15895;SDS011;33591;52.282;8.036;2022-08-01T00:20:18;13.25;;;10.57;;
15895;SDS011;33591;52.282;8.036;2022-08-01T00:21:19;13.85;;;11.13;;
15895;SDS011;33591;52.282;8.036;2022-08-01T00:22:19;13.43;;;11.40;;
15895;SDS011;33591;52.282;8.036;2022-08-01T00:23:20;12.38;;;11.02;;
15895;SDS011;33591;52.282;8.036;2022-08-01T00:24:20;12.88;;;10.95;;
15895;SDS011;33591;52.282;8.036;2022-08-01T00:25:20;12.38;;;10.52;;
15895;SDS011;33591;52.282;8.036;2022-08-01T00:26:20;15.00;;;11.32;;
15895;SDS011;33591;52.282;8.036;2022-08-01T00:27:21;14.10;;;10.25;;
15895;SDS011;33591;52.282;8.036;2022-08-01T00:28:21;11.50;;;9.90;;
15895;SDS011;33591;52.282;8.036;2022-08-01T00:29:21;13.20;;;10.10;;
15895;SDS011;33591;52.282;8.036;2022-08-01T00:30:22;14.60;;;10.57;;
15895;SDS011;33591;52.282;8.036;2022-08-01T00:31:22;15.43;;;10.20;;
15895;SDS011;33591;52.282;8.036;2022-08-01T00:32:23;12.30;;;10.05;;
15895;SDS011;33591;52.282;8.036;2022-08-01T00:33:23;11.90;;;9.45;;
15895;SDS011;33591;52.282;8.036;2022-08-01T00:34:23;12.07;;;9.80;;
15895;SDS011;33591;52.282;8.036;2022-08-01T00:35:24;12.27;;;9.75;;
15895;SDS011;33591;52.282;8.036;2022-08-01T00:36:24;13.05;;;8.70;;
15895;SDS011;33591;52.282;8.036;2022-08-01T00:37:24;11.63;;;9.15;;
15895;SDS011;33591;52.282;8.036;2022-08-01T00:38:25;12.65;;;8.80;;
15895;SDS011;33591;52.282;8.036;2022-08-01T00:39:25;11.57;;;8.38;;
15895;SDS011;33591;52.282;8.036;2022-08-01T00:40:25;9.90;;;8.90;;
15895;SDS011;33591;52.282;8.036;2022-08-01T00:41:26;11.18;;;8.65;;
15895;SDS011;33591;52.282;8.036;2022-08-01T00:42:26;11.40;;;9.55;;
15895;SDS011;33591;52.282;8.036;2022-08-01T00:43:27;11.20;;;9.02;;
15895;SDS011;33591;52.282;8.036;2022-08-01T00:44:27;10.52;;;8.40;;
15895;SDS011;33591;52.282;8.036;2022-08-01T00:45:27;12.10;;;9.05;;
15895;SDS011;33591;52.282;8.036;2022-08-01T00:46:28;9.70;;;8.70;;
15895;SDS011;33591;52.282;8.036;2022-08-01T00:47:28;11.60;;;9.25;;
15895;SDS011;33591;52.282;8.036;2022-08-01T00:48:28;9.93;;;8.70;;
15895;SDS011;33591;52.282;8.036;2022-08-01T00:49:29;10.30;;;9.20;;
15895;SDS011;33591;52.282;8.036;2022-08-01T00:50:29;11.43;;;9.23;;
15895;SDS011;33591;52.282;8.036;2022-08-01T00:51:29;10.32;;;9.10;;
15895;SDS011;33591;52.282;8.036;2022-08-01T00:52:30;12.63;;;9.60;;
15895;SDS011;33591;52.282;8.036;2022-08-01T00:53:31;10.45;;;8.57;;
15895;SDS011;33591;52.282;8.036;2022-08-01T00:54:31;12.00;;;9.23;;
15895;SDS011;33591;52.282;8.036;2022-08-01T00:55:32;11.30;;;9.05;;
15895;SDS011;33591;52.282;8.036;2022-08-01T00:56:32;10.07;;;8.65;;
15895;SDS011;33591;52.282;8.036;2022-08-01T00:57:32;13.25;;;9.95;;
15895;SDS011;33591;52.282;8.036;2022-08-01T00:58:33;11.82;;;9.73;;
15895;SDS011;33591;52.282;8.036;2022-08-01T00:59:33;10.77;;;9.35;;
15895;SDS011;33591;52.282;8.036;2022-08-01T01:00:34;8.88;;;7.85;;
15895;SDS011;33591;52.282;8.036;2022-08-01T01:01:35;11.40;;;9.75;;
15895;SDS011;33591;52.282;8.036;2022-08-01T01:02:35;10.07;;;8.63;;
15895;SDS011;33591;52.282;8.036;2022-08-01T01:03:36;9.35;;;8.25;;
15895;SDS011;33591;52.282;8.036;2022-08-01T01:04:37;9.60;;;8.63;;
15895;SDS011;33591;52.282;8.036;2022-08-01T01:05:44;11.45;;;8.40;;
15895;SDS011;33591;52.282;8.036;2022-08-01T01:08:30;10.15;;;9.13;;
15895;SDS011;33591;52.282;8.036;2022-08-01T01:11:44;9.02;;;7.60;;
15895;SDS011;33591;52.282;8.036;2022-08-01T01:12:50;11.55;;;7.93;;
15895;SDS011;33591;52.282;8.036;2022-08-01T01:13:52;11.30;;;8.65;;
15895;SDS011;33591;52.282;8.036;2022-08-01T01:16:13;10.60;;;8.85;;
15895;SDS011;33591;52.282;8.036;2022-08-01T01:17:15;10.93;;;8.45;;
15895;SDS011;33591;52.282;8.036;2022-08-01T01:19:19;11.00;;;8.55;;
15895;SDS011;33591;52.282;8.036;2022-08-01T01:20:21;9.20;;;8.30;;
15895;SDS011;33591;52.282;8.036;2022-08-01T01:25:02;11.63;;;8.68;;
15895;SDS011;33591;52.282;8.036;2022-08-01T01:26:10;13.55;;;8.90;;
15895;SDS011;33591;52.282;8.036;2022-08-01T01:27:21;12.75;;;9.55;;
15895;SDS011;33591;52.282;8.036;2022-08-01T01:28:30;10.20;;;8.45;;
15895;SDS011;33591;52.282;8.036;2022-08-01T01:30:37;12.68;;;8.23;;
15895;SDS011;33591;52.282;8.036;2022-08-01T01:31:48;11.77;;;9.23;;
15895;SDS011;33591;52.282;8.036;2022-08-01T01:32:50;9.35;;;8.32;;
15895;SDS011;33591;52.282;8.036;2022-08-01T01:33:52;11.68;;;9.13;;
15895;SDS011;33591;52.282;8.036;2022-08-01T01:34:54;9.77;;;8.35;;
15895;SDS011;33591;52.282;8.036;2022-08-01T01:35:57;11.68;;;9.27;;
15895;SDS011;33591;52.282;8.036;2022-08-01T01:36:58;12.15;;;9.52;;
15895;SDS011;33591;52.282;8.036;2022-08-01T01:38:19;11.45;;;10.25;;
15895;SDS011;33591;52.282;8.036;2022-08-01T01:39:20;10.95;;;9.30;;
15895;SDS011;33591;52.282;8.036;2022-08-01T01:40:21;13.32;;;10.15;;
15895;SDS011;33591;52.282;8.036;2022-08-01T01:41:21;12.00;;;9.80;;
15895;SDS011;33591;52.282;8.036;2022-08-01T01:42:22;12.85;;;9.88;;
15895;SDS011;33591;52.282;8.036;2022-08-01T01:43:24;11.32;;;9.23;;
15895;SDS011;33591;52.282;8.036;2022-08-01T01:44:25;10.55;;;9.45;;
15895;SDS011;33591;52.282;8.036;2022-08-01T01:45:26;11.05;;;8.30;;
15895;SDS011;33591;52.282;8.036;2022-08-01T01:46:27;9.75;;;8.82;;
15895;SDS011;33591;52.282;8.036;2022-08-01T01:47:29;11.18;;;9.70;;
15895;SDS011;33591;52.282;8.036;2022-08-01T01:48:29;12.80;;;10.00;;
15895;SDS011;33591;52.282;8.036;2022-08-01T01:49:31;12.68;;;9.75;;
15895;SDS011;33591;52.282;8.036;2022-08-01T01:50:31;13.43;;;10.52;;
15895;SDS011;33591;52.282;8.036;2022-08-01T01:51:32;12.40;;;9.60;;
15895;SDS011;33591;52.282;8.036;2022-08-01T01:52:33;10.27;;;9.00;;
15895;SDS011;33591;52.282;8.036;2022-08-01T01:53:33;11.77;;;10.35;;
15895;SDS011;33591;52.282;8.036;2022-08-01T01:54:36;12.45;;;10.23;;
15895;SDS011;33591;52.282;8.036;2022-08-01T01:55:37;14.20;;;9.90;;
15895;SDS011;33591;52.282;8.036;2022-08-01T01:56:38;10.73;;;9.05;;
15895;SDS011;33591;52.282;8.036;2022-08-01T01:57:48;10.60;;;9.57;;
15895;SDS011;33591;52.282;8.036;2022-08-01T01:58:53;13.43;;;10.70;;
15895;SDS011;33591;52.282;8.036;2022-08-01T01:59:54;10.25;;;8.68;;
15895;SDS011;33591;52.282;8.036;2022-08-01T02:00:56;11.32;;;9.70;;
15895;SDS011;33591;52.282;8.036;2022-08-01T02:01:58;11.27;;;10.15;;
15895;SDS011;33591;52.282;8.036;2022-08-01T02:03:00;11.60;;;10.40;;
15895;SDS011;33591;52.282;8.036;2022-08-01T02:04:02;13.88;;;10.65;;
15895;SDS011;33591;52.282;8.036;2022-08-01T02:05:03;12.80;;;10.70;;
15895;SDS011;33591;52.282;8.036;2022-08-01T02:06:04;12.23;;;10.88;;
15895;SDS011;33591;52.282;8.036;2022-08-01T02:07:05;12.70;;;10.70;;
15895;SDS011;33591;52.282;8.036;2022-08-01T02:08:06;13.05;;;10.48;;
15895;SDS011;33591;52.282;8.036;2022-08-01T02:09:08;14.48;;;10.68;;
15895;SDS011;33591;52.282;8.036;2022-08-01T02:10:08;14.25;;;12.10;;
15895;SDS011;33591;52.282;8.036;2022-08-01T02:11:10;16.15;;;11.63;;
15895;SDS011;33591;52.282;8.036;2022-08-01T02:12:19;15.35;;;11.52;;
15895;SDS011;33591;52.282;8.036;2022-08-01T02:13:21;13.48;;;11.95;;
15895;SDS011;33591;52.282;8.036;2022-08-01T02:14:22;14.70;;;12.23;;
15895;SDS011;33591;52.282;8.036;2022-08-01T02:15:23;16.65;;;11.80;;
15895;SDS011;33591;52.282;8.036;2022-08-01T02:16:25;14.85;;;12.02;;
15895;SDS011;33591;52.282;8.036;2022-08-01T02:17:26;15.10;;;12.27;;
15895;SDS011;33591;52.282;8.036;2022-08-01T02:18:26;17.73;;;13.32;;
15895;SDS011;33591;52.282;8.036;2022-08-01T02:19:27;13.40;;;11.57;;
15895;SDS011;33591;52.282;8.036;2022-08-01T02:20:29;13.43;;;10.68;;
15895;SDS011;33591;52.282;8.036;2022-08-01T02:21:30;16.17;;;13.05;;
15895;SDS011;33591;52.282;8.036;2022-08-01T02:22:33;14.30;;;11.30;;
15895;SDS011;33591;52.282;8.036;2022-08-01T02:23:35;13.80;;;10.98;;
15895;SDS011;33591;52.282;8.036;2022-08-01T02:24:53;14.23;;;12.05;;
15895;SDS011;33591;52.282;8.036;2022-08-01T02:25:55;13.23;;;11.82;;
15895;SDS011;33591;52.282;8.036;2022-08-01T02:27:00;12.43;;;10.75;;
15895;SDS011;33591;52.282;8.036;2022-08-01T02:28:05;17.27;;;11.05;;
15895;SDS011;33591;52.282;8.036;2022-08-01T02:29:07;14.13;;;11.93;;
15895;SDS011;33591;52.282;8.036;2022-08-01T02:30:10;16.33;;;12.00;;
15895;SDS011;33591;52.282;8.036;2022-08-01T02:31:12;14.07;;;11.45;;
15895;SDS011;33591;52.282;8.036;2022-08-01T02:32:35;14.10;;;11.68;;
15895;SDS011;33591;52.282;8.036;2022-08-01T02:33:37;13.40;;;10.50;;
15895;SDS011;33591;52.282;8.036;2022-08-01T02:34:38;12.05;;;10.85;;
15895;SDS011;33591;52.282;8.036;2022-08-01T02:35:40;14.30;;;10.90;;
15895;SDS011;33591;52.282;8.036;2022-08-01T02:36:41;13.73;;;11.10;;
15895;SDS011;33591;52.282;8.036;2022-08-01T02:37:43;13.90;;;11.15;;
15895;SDS011;33591;52.282;8.036;2022-08-01T02:38:45;12.25;;;10.77;;
15895;SDS011;33591;52.282;8.036;2022-08-01T02:39:47;15.77;;;10.90;;
15895;SDS011;33591;52.282;8.036;2022-08-01T02:40:48;15.00;;;12.10;;
15895;SDS011;33591;52.282;8.036;2022-08-01T02:41:50;13.90;;;11.63;;
15895;SDS011;33591;52.282;8.036;2022-08-01T02:42:54;13.27;;;11.05;;
15895;SDS011;33591;52.282;8.036;2022-08-01T02:43:56;13.80;;;11.63;;
15895;SDS011;33591;52.282;8.036;2022-08-01T02:44:58;15.18;;;10.30;;
15895;SDS011;33591;52.282;8.036;2022-08-01T02:45:59;14.75;;;11.68;;
15895;SDS011;33591;52.282;8.036;2022-08-01T02:47:01;12.68;;;11.30;;
15895;SDS011;33591;52.282;8.036;2022-08-01T02:48:05;12.50;;;10.85;;
15895;SDS011;33591;52.282;8.036;2022-08-01T02:49:08;14.20;;;11.43;;
15895;SDS011;33591;52.282;8.036;2022-08-01T02:50:10;14.90;;;11.85;;
15895;SDS011;33591;52.282;8.036;2022-08-01T02:51:12;12.55;;;11.35;;
15895;SDS011;33591;52.282;8.036;2022-08-01T02:52:14;13.57;;;11.82;;
15895;SDS011;33591;52.282;8.036;2022-08-01T02:53:16;13.23;;;11.20;;
15895;SDS011;33591;52.282;8.036;2022-08-01T02:54:17;12.15;;;10.77;;
15895;SDS011;33591;52.282;8.036;2022-08-01T02:55:18;15.80;;;12.65;;
15895;SDS011;33591;52.282;8.036;2022-08-01T02:56:19;14.95;;;11.35;;
15895;SDS011;33591;52.282;8.036;2022-08-01T02:57:21;13.43;;;11.15;;
15895;SDS011;33591;52.282;8.036;2022-08-01T02:58:23;14.80;;;10.80;;
15895;SDS011;33591;52.282;8.036;2022-08-01T02:59:24;14.93;;;12.05;;
15895;SDS011;33591;52.282;8.036;2022-08-01T03:00:26;12.05;;;10.82;;
15895;SDS011;33591;52.282;8.036;2022-08-01T03:01:27;13.98;;;11.43;;
15895;SDS011;33591;52.282;8.036;2022-08-01T03:02:28;14.43;;;11.30;;
15895;SDS011;33591;52.282;8.036;2022-08-01T03:03:29;15.38;;;12.13;;
15895;SDS011;33591;52.282;8.036;2022-08-01T03:04:30;12.30;;;10.77;;
15895;SDS011;33591;52.282;8.036;2022-08-01T03:05:32;14.13;;;11.23;;
15895;SDS011;33591;52.282;8.036;2022-08-01T03:06:33;13.48;;;11.38;;
15895;SDS011;33591;52.282;8.036;2022-08-01T03:07:33;12.95;;;11.45;;
15895;SDS011;33591;52.282;8.036;2022-08-01T03:08:34;13.48;;;11.20;;
15895;SDS011;33591;52.282;8.036;2022-08-01T03:09:36;13.20;;;11.20;;
15895;SDS011;33591;52.282;8.036;2022-08-01T03:10:38;12.25;;;10.82;;
15895;SDS011;33591;52.282;8.036;2022-08-01T03:11:39;12.45;;;10.75;;
15895;SDS011;33591;52.282;8.036;2022-08-01T03:12:41;11.70;;;10.45;;
15895;SDS011;33591;52.282;8.036;2022-08-01T03:13:42;12.88;;;10.75;;
15895;SDS011;33591;52.282;8.036;2022-08-01T03:14:44;12.45;;;10.63;;
15895;SDS011;33591;52.282;8.036;2022-08-01T03:15:44;11.90;;;10.00;;
15895;SDS011;33591;52.282;8.036;2022-08-01T03:16:45;12.68;;;11.38;;
15895;SDS011;33591;52.282;8.036;2022-08-01T03:17:46;11.45;;;10.25;;
15895;SDS011;33591;52.282;8.036;2022-08-01T03:18:48;14.82;;;11.02;;
15895;SDS011;33591;52.282;8.036;2022-08-01T03:19:48;12.30;;;10.52;;
15895;SDS011;33591;52.282;8.036;2022-08-01T03:20:50;13.32;;;10.75;;
15895;SDS011;33591;52.282;8.036;2022-08-01T03:21:51;14.13;;;11.32;;
15895;SDS011;33591;52.282;8.036;2022-08-01T03:22:52;17.00;;;11.10;;
15895;SDS011;33591;52.282;8.036;2022-08-01T03:23:53;13.88;;;12.18;;
15895;SDS011;33591;52.282;8.036;2022-08-01T03:24:57;14.45;;;11.07;;
15895;SDS011;33591;52.282;8.036;2022-08-01T03:25:59;13.02;;;11.02;;
15895;SDS011;33591;52.282;8.036;2022-08-01T03:27:00;13.60;;;10.88;;
15895;SDS011;33591;52.282;8.036;2022-08-01T03:28:03;13.70;;;12.30;;
15895;SDS011;33591;52.282;8.036;2022-08-01T03:29:04;16.10;;;12.20;;
15895;SDS011;33591;52.282;8.036;2022-08-01T03:30:08;17.77;;;13.07;;
15895;SDS011;33591;52.282;8.036;2022-08-01T03:31:10;15.68;;;13.30;;
15895;SDS011;33591;52.282;8.036;2022-08-01T03:32:12;13.85;;;12.13;;
15895;SDS011;33591;52.282;8.036;2022-08-01T03:33:13;17.42;;;13.00;;
15895;SDS011;33591;52.282;8.036;2022-08-01T03:34:14;19.90;;;14.23;;
15895;SDS011;33591;52.282;8.036;2022-08-01T03:35:14;17.45;;;13.48;;
15895;SDS011;33591;52.282;8.036;2022-08-01T03:36:15;16.38;;;12.98;;
15895;SDS011;33591;52.282;8.036;2022-08-01T03:37:50;15.85;;;12.80;;
15895;SDS011;33591;52.282;8.036;2022-08-01T03:38:42;14.77;;;13.30;;
15895;SDS011;33591;52.282;8.036;2022-08-01T03:39:50;16.08;;;12.65;;
15895;SDS011;33591;52.282;8.036;2022-08-01T03:40:53;18.75;;;13.50;;
15895;SDS011;33591;52.282;8.036;2022-08-01T03:41:58;17.00;;;12.93;;
15895;SDS011;33591;52.282;8.036;2022-08-01T03:43:02;18.92;;;13.57;;
15895;SDS011;33591;52.282;8.036;2022-08-01T03:44:05;16.52;;;12.75;;
15895;SDS011;33591;52.282;8.036;2022-08-01T03:45:08;15.57;;;12.40;;
15895;SDS011;33591;52.282;8.036;2022-08-01T03:46:13;15.40;;;12.35;;
15895;SDS011;33591;52.282;8.036;2022-08-01T03:47:16;15.60;;;13.15;;
15895;SDS011;33591;52.282;8.036;2022-08-01T03:48:17;16.48;;;13.93;;
15895;SDS011;33591;52.282;8.036;2022-08-01T03:49:19;13.68;;;12.25;;
15895;SDS011;33591;52.282;8.036;2022-08-01T03:50:20;13.75;;;12.38;;
15895;SDS011;33591;52.282;8.036;2022-08-01T03:51:22;14.88;;;12.35;;
15895;SDS011;33591;52.282;8.036;2022-08-01T03:52:22;16.08;;;13.10;;
15895;SDS011;33591;52.282;8.036;2022-08-01T03:53:25;14.93;;;12.32;;
15895;SDS011;33591;52.282;8.036;2022-08-01T03:54:28;15.65;;;12.60;;
15895;SDS011;33591;52.282;8.036;2022-08-01T03:55:30;15.02;;;12.35;;
15895;SDS011;33591;52.282;8.036;2022-08-01T03:56:31;13.80;;;12.05;;
15895;SDS011;33591;52.282;8.036;2022-08-01T03:57:32;14.65;;;12.50;;
15895;SDS011;33591;52.282;8.036;2022-08-01T03:58:33;14.88;;;13.27;;
15895;SDS011;33591;52.282;8.036;2022-08-01T03:59:34;15.10;;;13.07;;
15895;SDS011;33591;52.282;8.036;2022-08-01T04:00:36;14.32;;;12.68;;
15895;SDS011;33591;52.282;8.036;2022-08-01T04:01:39;18.13;;;13.88;;
15895;SDS011;33591;52.282;8.036;2022-08-01T04:02:39;17.02;;;12.52;;
15895;SDS011;33591;52.282;8.036;2022-08-01T04:03:40;14.05;;;12.15;;
15895;SDS011;33591;52.282;8.036;2022-08-01T04:04:41;14.57;;;12.90;;
15895;SDS011;33591;52.282;8.036;2022-08-01T04:05:41;16.70;;;12.55;;
15895;SDS011;33591;52.282;8.036;2022-08-01T04:06:42;15.32;;;12.85;;
15895;SDS011;33591;52.282;8.036;2022-08-01T04:07:46;15.38;;;12.60;;
15895;SDS011;33591;52.282;8.036;2022-08-01T04:08:46;18.67;;;12.90;;
15895;SDS011;33591;52.282;8.036;2022-08-01T04:09:56;13.65;;;11.75;;
15895;SDS011;33591;52.282;8.036;2022-08-01T04:10:56;16.05;;;12.95;;
15895;SDS011;33591;52.282;8.036;2022-08-01T04:11:59;12.93;;;11.35;;
15895;SDS011;33591;52.282;8.036;2022-08-01T04:13:00;13.55;;;11.63;;
15895;SDS011;33591;52.282;8.036;2022-08-01T04:14:00;15.48;;;12.32;;
15895;SDS011;33591;52.282;8.036;2022-08-01T04:15:00;13.25;;;11.85;;
15895;SDS011;33591;52.282;8.036;2022-08-01T04:16:01;14.50;;;12.32;;
15895;SDS011;33591;52.282;8.036;2022-08-01T04:17:01;13.65;;;11.95;;
15895;SDS011;33591;52.282;8.036;2022-08-01T04:18:01;15.60;;;13.00;;
15895;SDS011;33591;52.282;8.036;2022-08-01T04:19:02;14.95;;;13.00;;
15895;SDS011;33591;52.282;8.036;2022-08-01T04:20:03;12.88;;;11.57;;
15895;SDS011;33591;52.282;8.036;2022-08-01T04:21:03;16.08;;;13.20;;
15895;SDS011;33591;52.282;8.036;2022-08-01T04:22:04;15.32;;;12.48;;
15895;SDS011;33591;52.282;8.036;2022-08-01T04:23:04;16.52;;;11.90;;
15895;SDS011;33591;52.282;8.036;2022-08-01T04:24:07;13.93;;;12.32;;
15895;SDS011;33591;52.282;8.036;2022-08-01T04:25:11;13.57;;;12.15;;
15895;SDS011;33591;52.282;8.036;2022-08-01T04:26:12;13.05;;;11.52;;
15895;SDS011;33591;52.282;8.036;2022-08-01T04:27:14;12.48;;;11.25;;
15895;SDS011;33591;52.282;8.036;2022-08-01T04:28:17;13.75;;;12.18;;
15895;SDS011;33591;52.282;8.036;2022-08-01T04:29:19;14.23;;;11.93;;
15895;SDS011;33591;52.282;8.036;2022-08-01T04:30:22;12.05;;;10.82;;
15895;SDS011;33591;52.282;8.036;2022-08-01T04:31:24;11.40;;;10.27;;
15895;SDS011;33591;52.282;8.036;2022-08-01T04:32:27;12.07;;;10.88;;
15895;SDS011;33591;52.282;8.036;2022-08-01T04:33:29;14.32;;;11.40;;
15895;SDS011;33591;52.282;8.036;2022-08-01T04:34:30;12.52;;;11.20;;
15895;SDS011;33591;52.282;8.036;2022-08-01T04:35:31;12.32;;;11.05;;
15895;SDS011;33591;52.282;8.036;2022-08-01T04:36:33;10.80;;;9.90;;
15895;SDS011;33591;52.282;8.036;2022-08-01T04:37:35;12.48;;;10.98;;
15895;SDS011;33591;52.282;8.036;2022-08-01T04:38:37;11.05;;;9.95;;
15895;SDS011;33591;52.282;8.036;2022-08-01T04:39:37;12.00;;;10.63;;
15895;SDS011;33591;52.282;8.036;2022-08-01T04:40:40;12.20;;;10.95;;
15895;SDS011;33591;52.282;8.036;2022-08-01T04:41:41;13.88;;;10.88;;
15895;SDS011;33591;52.282;8.036;2022-08-01T04:42:41;11.57;;;10.48;;
15895;SDS011;33591;52.282;8.036;2022-08-01T04:43:42;12.93;;;10.70;;
15895;SDS011;33591;52.282;8.036;2022-08-01T04:44:42;13.18;;;11.77;;
15895;SDS011;33591;52.282;8.036;2022-08-01T04:45:42;11.68;;;10.48;;
15895;SDS011;33591;52.282;8.036;2022-08-01T04:46:43;12.50;;;11.27;;
15895;SDS011;33591;52.282;8.036;2022-08-01T04:47:44;12.57;;;11.35;;
15895;SDS011;33591;52.282;8.036;2022-08-01T04:48:45;11.55;;;10.43;;
15895;SDS011;33591;52.282;8.036;2022-08-01T04:49:45;12.52;;;10.40;;
15895;SDS011;33591;52.282;8.036;2022-08-01T04:50:46;11.52;;;10.38;;
15895;SDS011;33591;52.282;8.036;2022-08-01T04:51:50;10.90;;;9.90;;
15895;SDS011;33591;52.282;8.036;2022-08-01T04:52:51;11.43;;;10.27;;
15895;SDS011;33591;52.282;8.036;2022-08-01T04:53:51;10.95;;;9.85;;
15895;SDS011;33591;52.282;8.036;2022-08-01T04:54:52;9.93;;;9.02;;
15895;SDS011;33591;52.282;8.036;2022-08-01T04:55:52;10.90;;;9.80;;
15895;SDS011;33591;52.282;8.036;2022-08-01T04:56:53;11.20;;;10.05;;
15895;SDS011;33591;52.282;8.036;2022-08-01T04:57:55;11.50;;;10.43;;
15895;SDS011;33591;52.282;8.036;2022-08-01T04:58:55;10.75;;;9.65;;
15895;SDS011;33591;52.282;8.036;2022-08-01T05:00:14;10.90;;;9.80;;
15895;SDS011;33591;52.282;8.036;2022-08-01T05:01:18;10.52;;;9.52;;
15895;SDS011;33591;52.282;8.036;2022-08-01T05:02:18;10.98;;;9.82;;
15895;SDS011;33591;52.282;8.036;2022-08-01T05:03:18;11.95;;;10.68;;
15895;SDS011;33591;52.282;8.036;2022-08-01T05:04:19;11.13;;;10.02;;
15895;SDS011;33591;52.282;8.036;2022-08-01T05:05:19;10.57;;;9.52;;
15895;SDS011;33591;52.282;8.036;2022-08-01T05:06:20;9.88;;;8.88;;
15895;SDS011;33591;52.282;8.036;2022-08-01T05:07:21;11.30;;;9.60;;
15895;SDS011;33591;52.282;8.036;2022-08-01T05:08:21;11.88;;;9.18;;
15895;SDS011;33591;52.282;8.036;2022-08-01T05:09:21;10.60;;;9.57;;
15895;SDS011;33591;52.282;8.036;2022-08-01T05:10:22;9.43;;;8.48;;
15895;SDS011;33591;52.282;8.036;2022-08-01T05:11:22;9.13;;;8.13;;
15895;SDS011;33591;52.282;8.036;2022-08-01T05:12:22;8.98;;;8.18;;
15895;SDS011;33591;52.282;8.036;2022-08-01T05:13:23;8.60;;;7.80;;
15895;SDS011;33591;52.282;8.036;2022-08-01T05:14:23;9.10;;;8.30;;
15895;SDS011;33591;52.282;8.036;2022-08-01T05:15:24;7.97;;;7.35;;
15895;SDS011;33591;52.282;8.036;2022-08-01T05:16:24;8.40;;;7.68;;
15895;SDS011;33591;52.282;8.036;2022-08-01T05:17:24;8.55;;;7.75;;
15895;SDS011;33591;52.282;8.036;2022-08-01T05:18:25;7.70;;;7.00;;
15895;SDS011;33591;52.282;8.036;2022-08-01T05:19:26;7.60;;;6.80;;
15895;SDS011;33591;52.282;8.036;2022-08-01T05:20:27;7.68;;;7.07;;
15895;SDS011;33591;52.282;8.036;2022-08-01T05:21:27;7.57;;;6.88;;
15895;SDS011;33591;52.282;8.036;2022-08-01T05:22:27;8.00;;;7.30;;
15895;SDS011;33591;52.282;8.036;2022-08-01T05:23:28;7.20;;;6.57;;
15895;SDS011;33591;52.282;8.036;2022-08-01T05:24:28;6.95;;;6.38;;
15895;SDS011;33591;52.282;8.036;2022-08-01T05:25:28;7.55;;;6.72;;
15895;SDS011;33591;52.282;8.036;2022-08-01T05:26:28;9.55;;;6.95;;
15895;SDS011;33591;52.282;8.036;2022-08-01T05:27:29;11.32;;;7.93;;
15895;SDS011;33591;52.282;8.036;2022-08-01T05:28:29;7.18;;;6.47;;
15895;SDS011;33591;52.282;8.036;2022-08-01T05:29:29;8.57;;;7.57;;
15895;SDS011;33591;52.282;8.036;2022-08-01T05:30:30;7.57;;;6.82;;
15895;SDS011;33591;52.282;8.036;2022-08-01T05:31:30;8.25;;;7.13;;
15895;SDS011;33591;52.282;8.036;2022-08-01T05:32:34;10.32;;;7.30;;
15895;SDS011;33591;52.282;8.036;2022-08-01T05:33:34;8.48;;;7.78;;
15895;SDS011;33591;52.282;8.036;2022-08-01T05:34:34;9.38;;;8.48;;
15895;SDS011;33591;52.282;8.036;2022-08-01T05:35:35;10.73;;;8.32;;
15895;SDS011;33591;52.282;8.036;2022-08-01T05:36:35;8.50;;;7.82;;
15895;SDS011;33591;52.282;8.036;2022-08-01T05:37:37;8.93;;;7.25;;
15895;SDS011;33591;52.282;8.036;2022-08-01T05:38:37;9.50;;;8.18;;
15895;SDS011;33591;52.282;8.036;2022-08-01T05:39:38;9.13;;;8.32;;
15895;SDS011;33591;52.282;8.036;2022-08-01T05:40:38;9.18;;;8.38;;
15895;SDS011;33591;52.282;8.036;2022-08-01T05:41:39;8.93;;;8.10;;
15895;SDS011;33591;52.282;8.036;2022-08-01T05:42:39;9.57;;;8.63;;
15895;SDS011;33591;52.282;8.036;2022-08-01T05:43:39;8.30;;;7.57;;
15895;SDS011;33591;52.282;8.036;2022-08-01T05:44:40;8.98;;;7.93;;
15895;SDS011;33591;52.282;8.036;2022-08-01T05:45:40;7.75;;;7.05;;
15895;SDS011;33591;52.282;8.036;2022-08-01T05:46:41;8.95;;;7.75;;
15895;SDS011;33591;52.282;8.036;2022-08-01T05:47:42;8.90;;;8.00;;
15895;SDS011;33591;52.282;8.036;2022-08-01T05:48:42;9.48;;;7.63;;
15895;SDS011;33591;52.282;8.036;2022-08-01T05:49:43;9.35;;;7.82;;
15895;SDS011;33591;52.282;8.036;2022-08-01T05:50:43;9.63;;;8.63;;
15895;SDS011;33591;52.282;8.036;2022-08-01T05:51:44;9.07;;;8.27;;
15895;SDS011;33591;52.282;8.036;2022-08-01T05:52:44;9.35;;;8.45;;
15895;SDS011;33591;52.282;8.036;2022-08-01T05:53:44;8.55;;;7.40;;
15895;SDS011;33591;52.282;8.036;2022-08-01T05:54:45;8.15;;;7.47;;
15895;SDS011;33591;52.282;8.036;2022-08-01T05:55:45;8.02;;;6.97;;
15895;SDS011;33591;52.282;8.036;2022-08-01T05:56:45;6.88;;;6.18;;
15895;SDS011;33591;52.282;8.036;2022-08-01T05:57:46;7.90;;;5.10;;
15895;SDS011;33591;52.282;8.036;2022-08-01T05:58:46;4.18;;;3.92;;
15895;SDS011;33591;52.282;8.036;2022-08-01T05:59:46;4.63;;;4.20;;
15895;SDS011;33591;52.282;8.036;2022-08-01T06:00:47;4.78;;;4.38;;
15895;SDS011;33591;52.282;8.036;2022-08-01T06:01:47;5.18;;;4.70;;
15895;SDS011;33591;52.282;8.036;2022-08-01T06:02:47;4.53;;;4.22;;
15895;SDS011;33591;52.282;8.036;2022-08-01T06:03:48;4.75;;;4.45;;
15895;SDS011;33591;52.282;8.036;2022-08-01T06:04:48;6.28;;;4.78;;
15895;SDS011;33591;52.282;8.036;2022-08-01T06:05:48;4.60;;;4.20;;
15895;SDS011;33591;52.282;8.036;2022-08-01T06:06:49;5.53;;;4.60;;
15895;SDS011;33591;52.282;8.036;2022-08-01T06:07:49;6.45;;;4.70;;
15895;SDS011;33591;52.282;8.036;2022-08-01T06:08:49;5.25;;;4.75;;
15895;SDS011;33591;52.282;8.036;2022-08-01T06:09:50;5.57;;;5.10;;
15895;SDS011;33591;52.282;8.036;2022-08-01T06:10:50;7.20;;;5.22;;
15895;SDS011;33591;52.282;8.036;2022-08-01T06:11:51;5.80;;;5.25;;
15895;SDS011;33591;52.282;8.036;2022-08-01T06:12:51;5.55;;;4.97;;
15895;SDS011;33591;52.282;8.036;2022-08-01T06:13:51;5.32;;;4.90;;
15895;SDS011;33591;52.282;8.036;2022-08-01T06:14:52;5.75;;;5.25;;